sensor_id;sensor_type;location;lat;lon;timestamp;temperature;humidity
37518;DHT22;23366;52.498;13.446;2023-02-26T00:01:56;0.90;99.90
37518;DHT22;23366;52.498;13.446;2023-02-26T00:04:25;0.90;99.90
37518;DHT22;23366;52.498;13.446;2023-02-26T00:06:51;0.90;99.90
37518;DHT22;23366;52.498;13.446;2023-02-26T00:09:17;0.90;99.90
37518;DHT22;23366;52.498;13.446;2023-02-26T00:11:43;0.90;99.90
37518;DHT22;23366;52.498;13.446;2023-02-26T00:14:14;0.90;99.90
37518;DHT22;23366;52.498;13.446;2023-02-26T00:16:41;0.90;99.90
37518;DHT22;23366;52.498;13.446;2023-02-26T00:19:09;0.90;99.90
37518;DHT22;23366;52.498;13.446;2023-02-26T00:21:36;0.80;99.90
37518;DHT22;23366;52.498;13.446;2023-02-26T00:24:02;0.90;99.90
37518;DHT22;23366;52.498;13.446;2023-02-26T00:26:29;0.80;99.90
37518;DHT22;23366;52.498;13.446;2023-02-26T00:28:57;0.90;99.90
37518;DHT22;23366;52.498;13.446;2023-02-26T00:31:25;0.90;99.90
37518;DHT22;23366;52.498;13.446;2023-02-26T00:33:58;0.90;99.90
37518;DHT22;23366;52.498;13.446;2023-02-26T00:36:39;1.00;99.90
37518;DHT22;23366;52.498;13.446;2023-02-26T00:41:49;1.00;99.90
37518;DHT22;23366;52.498;13.446;2023-02-26T00:44:17;1.00;99.90
37518;DHT22;23366;52.498;13.446;2023-02-26T00:46:55;1.00;99.90
37518;DHT22;23366;52.498;13.446;2023-02-26T00:49:45;1.00;99.90
37518;DHT22;23366;52.498;13.446;2023-02-26T00:55:16;1.00;99.90
37518;DHT22;23366;52.498;13.446;2023-02-26T00:57:54;1.00;99.90
37518;DHT22;23366;52.498;13.446;2023-02-26T01:00:22;1.00;99.90
37518;DHT22;23366;52.498;13.446;2023-02-26T01:02:53;1.00;99.90
37518;DHT22;23366;52.498;13.446;2023-02-26T01:05:21;1.00;99.90
37518;DHT22;23366;52.498;13.446;2023-02-26T01:10:31;1.10;99.90
37518;DHT22;23366;52.498;13.446;2023-02-26T01:13:06;1.10;99.90
37518;DHT22;23366;52.498;13.446;2023-02-26T01:15:33;1.10;99.90
37518;DHT22;23366;52.498;13.446;2023-02-26T01:18:47;1.10;99.90
37518;DHT22;23366;52.498;13.446;2023-02-26T01:21:18;1.10;99.90
37518;DHT22;23366;52.498;13.446;2023-02-26T01:23:51;1.10;99.90
37518;DHT22;23366;52.498;13.446;2023-02-26T01:26:19;1.10;99.90
37518;DHT22;23366;52.498;13.446;2023-02-26T01:28:48;1.10;99.90
37518;DHT22;23366;52.498;13.446;2023-02-26T01:34:41;1.20;99.90
37518;DHT22;23366;52.498;13.446;2023-02-26T01:40:03;1.10;99.90
37518;DHT22;23366;52.498;13.446;2023-02-26T01:42:51;1.10;99.90
37518;DHT22;23366;52.498;13.446;2023-02-26T01:45:35;1.10;99.90
37518;DHT22;23366;52.498;13.446;2023-02-26T01:48:06;1.10;99.90
37518;DHT22;23366;52.498;13.446;2023-02-26T01:50:37;1.10;99.90
37518;DHT22;23366;52.498;13.446;2023-02-26T01:53:26;1.20;99.90
37518;DHT22;23366;52.498;13.446;2023-02-26T01:55:59;1.10;99.90
37518;DHT22;23366;52.498;13.446;2023-02-26T01:58:34;1.20;99.90
37518;DHT22;23366;52.498;13.446;2023-02-26T02:01:06;1.10;99.90
37518;DHT22;23366;52.498;13.446;2023-02-26T02:03:36;1.20;99.90
37518;DHT22;23366;52.498;13.446;2023-02-26T02:06:17;1.20;99.90
37518;DHT22;23366;52.498;13.446;2023-02-26T02:08:44;1.20;99.90
37518;DHT22;23366;52.498;13.446;2023-02-26T02:11:11;1.20;99.90
37518;DHT22;23366;52.498;13.446;2023-02-26T02:14:05;1.20;99.90
37518;DHT22;23366;52.498;13.446;2023-02-26T02:19:41;1.20;99.90
37518;DHT22;23366;52.498;13.446;2023-02-26T02:22:39;1.20;99.90
37518;DHT22;23366;52.498;13.446;2023-02-26T02:28:19;1.30;99.90
37518;DHT22;23366;52.498;13.446;2023-02-26T02:33:44;1.20;99.90
37518;DHT22;23366;52.498;13.446;2023-02-26T02:36:19;1.20;99.90
37518;DHT22;23366;52.498;13.446;2023-02-26T02:38:53;1.20;99.90
37518;DHT22;23366;52.498;13.446;2023-02-26T02:41:54;1.00;99.90
37518;DHT22;23366;52.498;13.446;2023-02-26T02:44:25;1.10;99.90
37518;DHT22;23366;52.498;13.446;2023-02-26T02:46:53;1.10;99.90
37518;DHT22;23366;52.498;13.446;2023-02-26T02:49:24;1.20;99.90
37518;DHT22;23366;52.498;13.446;2023-02-26T02:52:35;1.20;99.90
37518;DHT22;23366;52.498;13.446;2023-02-26T02:55:06;1.20;99.90
37518;DHT22;23366;52.498;13.446;2023-02-26T02:57:49;1.20;99.90
37518;DHT22;23366;52.498;13.446;2023-02-26T03:00:18;1.20;99.90
37518;DHT22;23366;52.498;13.446;2023-02-26T03:02:51;1.20;99.90
37518;DHT22;23366;52.498;13.446;2023-02-26T03:05:18;1.20;99.90
37518;DHT22;23366;52.498;13.446;2023-02-26T03:07:56;1.10;99.90
37518;DHT22;23366;52.498;13.446;2023-02-26T03:10:25;1.10;99.90
37518;DHT22;23366;52.498;13.446;2023-02-26T03:12:50;1.10;99.90
37518;DHT22;23366;52.498;13.446;2023-02-26T03:15:25;1.10;99.90
37518;DHT22;23366;52.498;13.446;2023-02-26T03:22:16;1.20;99.90
37518;DHT22;23366;52.498;13.446;2023-02-26T03:29:55;1.10;99.90
37518;DHT22;23366;52.498;13.446;2023-02-26T03:35:52;1.10;99.90
37518;DHT22;23366;52.498;13.446;2023-02-26T03:38:30;1.10;99.90
37518;DHT22;23366;52.498;13.446;2023-02-26T03:41:13;1.10;99.90
37518;DHT22;23366;52.498;13.446;2023-02-26T03:43:51;1.10;99.90
37518;DHT22;23366;52.498;13.446;2023-02-26T03:46:41;1.00;99.90
37518;DHT22;23366;52.498;13.446;2023-02-26T03:49:30;1.10;99.90
37518;DHT22;23366;52.498;13.446;2023-02-26T03:51:59;1.10;99.90
37518;DHT22;23366;52.498;13.446;2023-02-26T03:54:33;1.10;99.90
37518;DHT22;23366;52.498;13.446;2023-02-26T03:57:01;1.10;99.90
37518;DHT22;23366;52.498;13.446;2023-02-26T03:59:26;1.20;99.90
37518;DHT22;23366;52.498;13.446;2023-02-26T04:02:02;1.10;99.90
37518;DHT22;23366;52.498;13.446;2023-02-26T04:04:36;1.20;99.90
37518;DHT22;23366;52.498;13.446;2023-02-26T04:07:10;1.10;99.90
37518;DHT22;23366;52.498;13.446;2023-02-26T04:09:41;1.10;99.90
37518;DHT22;23366;52.498;13.446;2023-02-26T04:12:15;1.00;99.90
37518;DHT22;23366;52.498;13.446;2023-02-26T04:14:54;1.10;99.90
37518;DHT22;23366;52.498;13.446;2023-02-26T04:17:37;1.00;99.90
37518;DHT22;23366;52.498;13.446;2023-02-26T04:20:05;1.10;99.90
37518;DHT22;23366;52.498;13.446;2023-02-26T04:22:45;1.10;99.90
37518;DHT22;23366;52.498;13.446;2023-02-26T04:25:13;1.20;99.90
37518;DHT22;23366;52.498;13.446;2023-02-26T04:27:38;1.20;99.90
37518;DHT22;23366;52.498;13.446;2023-02-26T04:30:05;1.10;99.90
37518;DHT22;23366;52.498;13.446;2023-02-26T04:32:30;1.20;99.90
37518;DHT22;23366;52.498;13.446;2023-02-26T04:35:04;1.20;99.90
37518;DHT22;23366;52.498;13.446;2023-02-26T04:37:29;1.30;99.90
37518;DHT22;23366;52.498;13.446;2023-02-26T04:39:55;1.30;99.90
37518;DHT22;23366;52.498;13.446;2023-02-26T04:42:20;1.30;99.90
37518;DHT22;23366;52.498;13.446;2023-02-26T04:44:46;1.30;99.90
37518;DHT22;23366;52.498;13.446;2023-02-26T04:47:12;1.30;99.90
37518;DHT22;23366;52.498;13.446;2023-02-26T04:49:47;1.30;99.90
37518;DHT22;23366;52.498;13.446;2023-02-26T04:52:12;1.30;99.90
37518;DHT22;23366;52.498;13.446;2023-02-26T04:54:39;1.40;99.90
37518;DHT22;23366;52.498;13.446;2023-02-26T04:57:05;1.40;99.90
37518;DHT22;23366;52.498;13.446;2023-02-26T04:59:31;1.40;99.90
37518;DHT22;23366;52.498;13.446;2023-02-26T05:01:57;1.40;99.90
37518;DHT22;23366;52.498;13.446;2023-02-26T05:04:22;1.40;99.90
37518;DHT22;23366;52.498;13.446;2023-02-26T05:06:48;1.40;99.90
37518;DHT22;23366;52.498;13.446;2023-02-26T05:09:13;1.40;99.90
37518;DHT22;23366;52.498;13.446;2023-02-26T05:11:42;1.40;99.90
37518;DHT22;23366;52.498;13.446;2023-02-26T05:14:07;1.40;99.90
37518;DHT22;23366;52.498;13.446;2023-02-26T05:16:33;1.40;99.90
37518;DHT22;23366;52.498;13.446;2023-02-26T05:18:59;1.40;99.90
37518;DHT22;23366;52.498;13.446;2023-02-26T05:21:24;1.40;99.90
37518;DHT22;23366;52.498;13.446;2023-02-26T05:23:50;1.40;99.90
37518;DHT22;23366;52.498;13.446;2023-02-26T05:26:15;1.40;99.90
37518;DHT22;23366;52.498;13.446;2023-02-26T05:28:41;1.40;99.90
37518;DHT22;23366;52.498;13.446;2023-02-26T05:31:10;1.50;99.90
37518;DHT22;23366;52.498;13.446;2023-02-26T05:33:36;1.40;99.90
37518;DHT22;23366;52.498;13.446;2023-02-26T05:36:01;1.50;99.90
37518;DHT22;23366;52.498;13.446;2023-02-26T05:38:27;1.50;99.90
37518;DHT22;23366;52.498;13.446;2023-02-26T05:40:56;1.50;99.90
37518;DHT22;23366;52.498;13.446;2023-02-26T05:43:22;1.50;99.90
37518;DHT22;23366;52.498;13.446;2023-02-26T05:45:49;1.50;99.90
37518;DHT22;23366;52.498;13.446;2023-02-26T05:48:14;1.50;99.90
37518;DHT22;23366;52.498;13.446;2023-02-26T05:50:40;1.50;99.90
37518;DHT22;23366;52.498;13.446;2023-02-26T05:53:06;1.50;99.90
37518;DHT22;23366;52.498;13.446;2023-02-26T05:55:31;1.50;99.90
37518;DHT22;23366;52.498;13.446;2023-02-26T05:57:57;1.60;99.90
37518;DHT22;23366;52.498;13.446;2023-02-26T06:00:23;1.60;99.90
37518;DHT22;23366;52.498;13.446;2023-02-26T06:02:48;1.60;99.90
37518;DHT22;23366;52.498;13.446;2023-02-26T06:05:14;1.60;99.90
37518;DHT22;23366;52.498;13.446;2023-02-26T06:07:39;1.70;99.90
37518;DHT22;23366;52.498;13.446;2023-02-26T06:10:06;1.70;99.90
37518;DHT22;23366;52.498;13.446;2023-02-26T06:12:33;1.70;99.90
37518;DHT22;23366;52.498;13.446;2023-02-26T06:14:59;1.60;99.90
37518;DHT22;23366;52.498;13.446;2023-02-26T06:17:24;1.60;99.90
37518;DHT22;23366;52.498;13.446;2023-02-26T06:19:50;1.70;99.90
37518;DHT22;23366;52.498;13.446;2023-02-26T06:22:16;1.60;99.90
37518;DHT22;23366;52.498;13.446;2023-02-26T06:24:42;1.60;99.90
37518;DHT22;23366;52.498;13.446;2023-02-26T06:27:07;1.70;99.90
37518;DHT22;23366;52.498;13.446;2023-02-26T06:29:33;1.70;99.90
37518;DHT22;23366;52.498;13.446;2023-02-26T06:31:59;1.80;99.90
37518;DHT22;23366;52.498;13.446;2023-02-26T06:34:25;1.80;99.90
37518;DHT22;23366;52.498;13.446;2023-02-26T06:36:50;1.90;99.90
37518;DHT22;23366;52.498;13.446;2023-02-26T06:39:16;2.00;99.90
37518;DHT22;23366;52.498;13.446;2023-02-26T06:41:41;2.10;99.90
37518;DHT22;23366;52.498;13.446;2023-02-26T06:44:07;2.10;99.90
37518;DHT22;23366;52.498;13.446;2023-02-26T06:46:34;2.20;99.90
37518;DHT22;23366;52.498;13.446;2023-02-26T06:48:59;2.30;99.90
37518;DHT22;23366;52.498;13.446;2023-02-26T06:51:25;2.60;99.90
37518;DHT22;23366;52.498;13.446;2023-02-26T06:53:50;2.90;99.90
37518;DHT22;23366;52.498;13.446;2023-02-26T06:56:16;3.20;99.90
37518;DHT22;23366;52.498;13.446;2023-02-26T06:58:41;3.50;99.90
37518;DHT22;23366;52.498;13.446;2023-02-26T07:01:07;3.80;99.90
37518;DHT22;23366;52.498;13.446;2023-02-26T07:03:32;4.20;99.90
37518;DHT22;23366;52.498;13.446;2023-02-26T07:05:58;4.40;99.90
37518;DHT22;23366;52.498;13.446;2023-02-26T07:08:23;4.70;99.90
37518;DHT22;23366;52.498;13.446;2023-02-26T07:10:49;5.20;99.90
37518;DHT22;23366;52.498;13.446;2023-02-26T07:13:17;5.40;99.90
37518;DHT22;23366;52.498;13.446;2023-02-26T07:15:43;5.40;99.90
37518;DHT22;23366;52.498;13.446;2023-02-26T07:18:09;5.40;99.90
37518;DHT22;23366;52.498;13.446;2023-02-26T07:20:35;5.70;99.90
37518;DHT22;23366;52.498;13.446;2023-02-26T07:23:01;5.90;99.90
37518;DHT22;23366;52.498;13.446;2023-02-26T07:25:27;6.40;99.90
37518;DHT22;23366;52.498;13.446;2023-02-26T07:27:53;6.80;99.90
37518;DHT22;23366;52.498;13.446;2023-02-26T07:30:23;7.30;99.90
37518;DHT22;23366;52.498;13.446;2023-02-26T07:32:56;7.80;99.90
37518;DHT22;23366;52.498;13.446;2023-02-26T07:35:23;8.00;99.90
37518;DHT22;23366;52.498;13.446;2023-02-26T07:37:49;7.80;99.90
37518;DHT22;23366;52.498;13.446;2023-02-26T07:40:22;7.10;99.90
37518;DHT22;23366;52.498;13.446;2023-02-26T07:42:48;6.60;99.90
37518;DHT22;23366;52.498;13.446;2023-02-26T07:45:13;6.30;99.90
37518;DHT22;23366;52.498;13.446;2023-02-26T07:47:43;6.50;99.90
37518;DHT22;23366;52.498;13.446;2023-02-26T07:50:09;7.00;99.90
37518;DHT22;23366;52.498;13.446;2023-02-26T07:52:35;7.80;99.90
37518;DHT22;23366;52.498;13.446;2023-02-26T07:55:01;8.10;99.90
37518;DHT22;23366;52.498;13.446;2023-02-26T07:57:26;8.40;99.90
37518;DHT22;23366;52.498;13.446;2023-02-26T07:59:52;8.50;99.30
37518;DHT22;23366;52.498;13.446;2023-02-26T08:02:22;8.30;99.90
37518;DHT22;23366;52.498;13.446;2023-02-26T08:04:48;8.70;99.50
37518;DHT22;23366;52.498;13.446;2023-02-26T08:07:14;9.10;99.00
37518;DHT22;23366;52.498;13.446;2023-02-26T08:09:39;9.30;97.70
37518;DHT22;23366;52.498;13.446;2023-02-26T08:12:05;9.40;97.60
37518;DHT22;23366;52.498;13.446;2023-02-26T08:14:30;9.50;97.20
37518;DHT22;23366;52.498;13.446;2023-02-26T08:17:13;9.70;96.30
37518;DHT22;23366;52.498;13.446;2023-02-26T08:19:48;10.10;95.20
37518;DHT22;23366;52.498;13.446;2023-02-26T08:22:31;9.70;93.30
37518;DHT22;23366;52.498;13.446;2023-02-26T08:25:09;9.80;93.30
37518;DHT22;23366;52.498;13.446;2023-02-26T08:27:35;9.80;93.90
37518;DHT22;23366;52.498;13.446;2023-02-26T08:30:12;10.00;93.60
37518;DHT22;23366;52.498;13.446;2023-02-26T08:32:39;9.90;92.20
37518;DHT22;23366;52.498;13.446;2023-02-26T08:35:14;10.00;93.00
37518;DHT22;23366;52.498;13.446;2023-02-26T08:37:42;9.60;92.90
37518;DHT22;23366;52.498;13.446;2023-02-26T08:40:09;9.20;94.10
37518;DHT22;23366;52.498;13.446;2023-02-26T08:42:35;8.20;94.70
37518;DHT22;23366;52.498;13.446;2023-02-26T08:45:01;7.20;96.50
37518;DHT22;23366;52.498;13.446;2023-02-26T08:47:30;6.80;97.70
37518;DHT22;23366;52.498;13.446;2023-02-26T08:49:57;6.60;98.70
37518;DHT22;23366;52.498;13.446;2023-02-26T08:52:27;6.20;98.90
37518;DHT22;23366;52.498;13.446;2023-02-26T08:54:59;5.90;99.80
37518;DHT22;23366;52.498;13.446;2023-02-26T08:57:25;5.30;99.90
37518;DHT22;23366;52.498;13.446;2023-02-26T08:59:50;5.10;99.90
37518;DHT22;23366;52.498;13.446;2023-02-26T09:02:16;5.20;99.90
37518;DHT22;23366;52.498;13.446;2023-02-26T09:04:41;5.20;99.90
37518;DHT22;23366;52.498;13.446;2023-02-26T09:07:07;5.20;99.90
37518;DHT22;23366;52.498;13.446;2023-02-26T09:09:35;5.10;99.90
37518;DHT22;23366;52.498;13.446;2023-02-26T09:12:14;5.20;99.90
37518;DHT22;23366;52.498;13.446;2023-02-26T09:14:41;5.20;99.90
37518;DHT22;23366;52.498;13.446;2023-02-26T09:17:06;5.30;99.90
37518;DHT22;23366;52.498;13.446;2023-02-26T09:19:32;5.40;99.90
37518;DHT22;23366;52.498;13.446;2023-02-26T09:21:57;5.40;99.90
37518;DHT22;23366;52.498;13.446;2023-02-26T09:24:23;5.50;99.90
37518;DHT22;23366;52.498;13.446;2023-02-26T09:26:51;5.50;99.90
37518;DHT22;23366;52.498;13.446;2023-02-26T09:29:20;5.20;99.90
37518;DHT22;23366;52.498;13.446;2023-02-26T09:31:47;5.00;99.90
37518;DHT22;23366;52.498;13.446;2023-02-26T09:34:12;5.20;99.90
37518;DHT22;23366;52.498;13.446;2023-02-26T09:36:39;5.40;99.90
37518;DHT22;23366;52.498;13.446;2023-02-26T09:39:08;5.50;99.90
37518;DHT22;23366;52.498;13.446;2023-02-26T09:41:47;5.70;99.90
37518;DHT22;23366;52.498;13.446;2023-02-26T09:44:22;5.90;99.90
37518;DHT22;23366;52.498;13.446;2023-02-26T09:47:02;6.10;99.90
37518;DHT22;23366;52.498;13.446;2023-02-26T09:49:47;6.20;99.90
37518;DHT22;23366;52.498;13.446;2023-02-26T09:52:17;6.20;99.90
37518;DHT22;23366;52.498;13.446;2023-02-26T09:54:47;6.00;99.90
37518;DHT22;23366;52.498;13.446;2023-02-26T09:57:33;5.70;99.90
37518;DHT22;23366;52.498;13.446;2023-02-26T10:00:00;5.60;99.90
37518;DHT22;23366;52.498;13.446;2023-02-26T10:08:36;5.30;99.90
37518;DHT22;23366;52.498;13.446;2023-02-26T10:11:11;5.30;99.90
37518;DHT22;23366;52.498;13.446;2023-02-26T10:13:55;5.50;99.90
37518;DHT22;23366;52.498;13.446;2023-02-26T10:16:29;5.60;99.90
37518;DHT22;23366;52.498;13.446;2023-02-26T10:19:10;5.60;99.90
37518;DHT22;23366;52.498;13.446;2023-02-26T10:24:51;5.50;99.10
37518;DHT22;23366;52.498;13.446;2023-02-26T10:30:36;5.40;99.90
37518;DHT22;23366;52.498;13.446;2023-02-26T10:33:29;5.30;99.60
37518;DHT22;23366;52.498;13.446;2023-02-26T10:36:08;5.40;99.70
37518;DHT22;23366;52.498;13.446;2023-02-26T10:38:37;5.40;99.70
37518;DHT22;23366;52.498;13.446;2023-02-26T10:41:14;5.20;99.80
37518;DHT22;23366;52.498;13.446;2023-02-26T10:43:58;5.20;99.20
37518;DHT22;23366;52.498;13.446;2023-02-26T10:51:41;5.40;99.20
37518;DHT22;23366;52.498;13.446;2023-02-26T10:54:18;5.60;99.80
37518;DHT22;23366;52.498;13.446;2023-02-26T10:56:46;5.70;98.40
37518;DHT22;23366;52.498;13.446;2023-02-26T10:59:12;5.90;98.60
37518;DHT22;23366;52.498;13.446;2023-02-26T11:01:38;5.80;97.30
37518;DHT22;23366;52.498;13.446;2023-02-26T11:04:16;5.60;96.80
37518;DHT22;23366;52.498;13.446;2023-02-26T11:06:51;5.80;96.60
37518;DHT22;23366;52.498;13.446;2023-02-26T11:09:24;5.90;97.20
37518;DHT22;23366;52.498;13.446;2023-02-26T11:12:00;5.90;96.20
37518;DHT22;23366;52.498;13.446;2023-02-26T11:14:31;6.00;95.70
37518;DHT22;23366;52.498;13.446;2023-02-26T11:17:00;6.10;96.10
37518;DHT22;23366;52.498;13.446;2023-02-26T11:19:38;6.40;96.20
37518;DHT22;23366;52.498;13.446;2023-02-26T11:22:07;6.60;95.70
37518;DHT22;23366;52.498;13.446;2023-02-26T11:24:44;6.50;94.80
37518;DHT22;23366;52.498;13.446;2023-02-26T11:27:14;6.50;93.90
37518;DHT22;23366;52.498;13.446;2023-02-26T11:29:47;6.30;93.90
37518;DHT22;23366;52.498;13.446;2023-02-26T11:32:32;6.20;94.20
37518;DHT22;23366;52.498;13.446;2023-02-26T11:34:58;6.10;94.50
37518;DHT22;23366;52.498;13.446;2023-02-26T11:37:29;6.00;93.70
37518;DHT22;23366;52.498;13.446;2023-02-26T11:39:59;5.80;92.80
37518;DHT22;23366;52.498;13.446;2023-02-26T11:42:37;5.70;94.30
37518;DHT22;23366;52.498;13.446;2023-02-26T11:45:17;5.60;93.70
37518;DHT22;23366;52.498;13.446;2023-02-26T11:47:44;5.50;93.80
37518;DHT22;23366;52.498;13.446;2023-02-26T11:50:18;5.70;94.90
37518;DHT22;23366;52.498;13.446;2023-02-26T11:53:05;5.60;93.00
37518;DHT22;23366;52.498;13.446;2023-02-26T11:55:43;5.40;93.10
37518;DHT22;23366;52.498;13.446;2023-02-26T11:59:37;5.50;94.20
37518;DHT22;23366;52.498;13.446;2023-02-26T12:03:02;5.30;93.80
37518;DHT22;23366;52.498;13.446;2023-02-26T12:06:16;5.40;94.60
37518;DHT22;23366;52.498;13.446;2023-02-26T12:09:01;5.70;95.00
37518;DHT22;23366;52.498;13.446;2023-02-26T12:14:57;5.80;92.80
37518;DHT22;23366;52.498;13.446;2023-02-26T12:24:40;5.10;94.40
37518;DHT22;23366;52.498;13.446;2023-02-26T12:37:04;5.70;95.70
37518;DHT22;23366;52.498;13.446;2023-02-26T12:51:56;5.20;92.70
37518;DHT22;23366;52.498;13.446;2023-02-26T12:55:16;5.10;93.00
37518;DHT22;23366;52.498;13.446;2023-02-26T13:03:33;5.00;93.90
37518;DHT22;23366;52.498;13.446;2023-02-26T13:15:51;4.40;93.10
37518;DHT22;23366;52.498;13.446;2023-02-26T13:25:03;4.70;92.90
37518;DHT22;23366;52.498;13.446;2023-02-26T13:27:32;4.90;93.60
37518;DHT22;23366;52.498;13.446;2023-02-26T13:30:33;5.00;93.00
37518;DHT22;23366;52.498;13.446;2023-02-26T13:33:06;5.00;94.20
37518;DHT22;23366;52.498;13.446;2023-02-26T13:36:11;5.00;93.30
37518;DHT22;23366;52.498;13.446;2023-02-26T13:41:57;4.90;93.40
37518;DHT22;23366;52.498;13.446;2023-02-26T13:44:31;4.90;94.50
37518;DHT22;23366;52.498;13.446;2023-02-26T13:56:58;5.10;92.80
37518;DHT22;23366;52.498;13.446;2023-02-26T14:02:46;4.90;93.50
37518;DHT22;23366;52.498;13.446;2023-02-26T14:14:04;4.80;94.00
37518;DHT22;23366;52.498;13.446;2023-02-26T14:16:22;5.00;93.20
37518;DHT22;23366;52.498;13.446;2023-02-26T14:18:50;4.80;90.70
37518;DHT22;23366;52.498;13.446;2023-02-26T14:22:00;4.90;92.00
37518;DHT22;23366;52.498;13.446;2023-02-26T14:24:44;5.00;92.30
37518;DHT22;23366;52.498;13.446;2023-02-26T14:27:40;5.10;91.30
37518;DHT22;23366;52.498;13.446;2023-02-26T14:36:01;4.90;91.60
37518;DHT22;23366;52.498;13.446;2023-02-26T14:38:37;5.00;92.00
37518;DHT22;23366;52.498;13.446;2023-02-26T14:41:11;4.90;92.20
37518;DHT22;23366;52.498;13.446;2023-02-26T14:46:41;4.70;92.30
37518;DHT22;23366;52.498;13.446;2023-02-26T14:49:18;4.60;92.00
37518;DHT22;23366;52.498;13.446;2023-02-26T14:52:04;4.60;92.60
37518;DHT22;23366;52.498;13.446;2023-02-26T15:00:10;4.50;90.90
37518;DHT22;23366;52.498;13.446;2023-02-26T15:24:17;4.40;91.90
37518;DHT22;23366;52.498;13.446;2023-02-26T15:26:48;4.50;91.10
37518;DHT22;23366;52.498;13.446;2023-02-26T15:29:14;4.50;90.40
37518;DHT22;23366;52.498;13.446;2023-02-26T15:31:52;4.60;90.80
37518;DHT22;23366;52.498;13.446;2023-02-26T15:34:26;4.50;90.50
37518;DHT22;23366;52.498;13.446;2023-02-26T15:36:55;4.50;90.80
37518;DHT22;23366;52.498;13.446;2023-02-26T15:42:24;4.50;88.60
37518;DHT22;23366;52.498;13.446;2023-02-26T15:44:57;4.40;90.30
37518;DHT22;23366;52.498;13.446;2023-02-26T15:47:39;4.40;90.00
37518;DHT22;23366;52.498;13.446;2023-02-26T15:50:14;4.20;90.20
37518;DHT22;23366;52.498;13.446;2023-02-26T15:52:41;4.20;91.20
37518;DHT22;23366;52.498;13.446;2023-02-26T15:55:09;4.10;90.90
37518;DHT22;23366;52.498;13.446;2023-02-26T15:57:38;4.10;91.30
37518;DHT22;23366;52.498;13.446;2023-02-26T16:00:08;4.00;91.60
37518;DHT22;23366;52.498;13.446;2023-02-26T16:02:34;3.90;91.60
37518;DHT22;23366;52.498;13.446;2023-02-26T16:05:02;3.80;92.10
37518;DHT22;23366;52.498;13.446;2023-02-26T16:07:31;3.70;92.00
37518;DHT22;23366;52.498;13.446;2023-02-26T16:10:04;3.60;92.00
37518;DHT22;23366;52.498;13.446;2023-02-26T16:12:35;3.60;92.60
37518;DHT22;23366;52.498;13.446;2023-02-26T16:15:18;3.60;93.00
37518;DHT22;23366;52.498;13.446;2023-02-26T16:17:47;3.50;93.50
37518;DHT22;23366;52.498;13.446;2023-02-26T16:20:17;3.50;93.00
37518;DHT22;23366;52.498;13.446;2023-02-26T16:22:57;3.50;93.60
37518;DHT22;23366;52.498;13.446;2023-02-26T16:25:34;3.40;94.20
37518;DHT22;23366;52.498;13.446;2023-02-26T16:28:09;3.40;93.50
37518;DHT22;23366;52.498;13.446;2023-02-26T16:30:38;3.40;94.10
37518;DHT22;23366;52.498;13.446;2023-02-26T16:33:11;3.40;95.10
37518;DHT22;23366;52.498;13.446;2023-02-26T16:35:46;3.30;95.20
37518;DHT22;23366;52.498;13.446;2023-02-26T16:38:29;3.30;95.50
37518;DHT22;23366;52.498;13.446;2023-02-26T16:41:01;3.30;96.20
37518;DHT22;23366;52.498;13.446;2023-02-26T16:46:12;3.30;95.80
37518;DHT22;23366;52.498;13.446;2023-02-26T16:48:49;3.20;95.90
37518;DHT22;23366;52.498;13.446;2023-02-26T16:51:20;3.20;96.00
37518;DHT22;23366;52.498;13.446;2023-02-26T16:54:00;3.20;96.10
37518;DHT22;23366;52.498;13.446;2023-02-26T16:56:34;3.20;96.80
37518;DHT22;23366;52.498;13.446;2023-02-26T16:59:12;3.10;96.50
37518;DHT22;23366;52.498;13.446;2023-02-26T17:01:52;3.10;97.10
37518;DHT22;23366;52.498;13.446;2023-02-26T17:04:22;3.10;97.30
37518;DHT22;23366;52.498;13.446;2023-02-26T17:06:49;3.10;97.10
37518;DHT22;23366;52.498;13.446;2023-02-26T17:09:37;3.00;97.60
37518;DHT22;23366;52.498;13.446;2023-02-26T17:14:45;3.00;98.00
37518;DHT22;23366;52.498;13.446;2023-02-26T17:17:12;3.00;98.20
37518;DHT22;23366;52.498;13.446;2023-02-26T17:19:38;2.90;98.30
37518;DHT22;23366;52.498;13.446;2023-02-26T17:22:04;3.00;97.80
37518;DHT22;23366;52.498;13.446;2023-02-26T17:24:36;2.90;97.90
37518;DHT22;23366;52.498;13.446;2023-02-26T17:27:05;3.00;98.20
37518;DHT22;23366;52.498;13.446;2023-02-26T17:29:34;3.00;98.70
37518;DHT22;23366;52.498;13.446;2023-02-26T17:32:02;3.00;98.40
37518;DHT22;23366;52.498;13.446;2023-02-26T17:34:28;3.10;98.70
37518;DHT22;23366;52.498;13.446;2023-02-26T17:36:54;3.10;99.20
37518;DHT22;23366;52.498;13.446;2023-02-26T17:39:21;3.20;99.00
37518;DHT22;23366;52.498;13.446;2023-02-26T17:41:47;3.20;98.70
37518;DHT22;23366;52.498;13.446;2023-02-26T17:44:13;3.20;99.10
37518;DHT22;23366;52.498;13.446;2023-02-26T17:46:38;3.20;99.30
37518;DHT22;23366;52.498;13.446;2023-02-26T17:49:04;3.20;99.30
37518;DHT22;23366;52.498;13.446;2023-02-26T17:51:30;3.20;99.00
37518;DHT22;23366;52.498;13.446;2023-02-26T17:53:55;3.10;99.00
37518;DHT22;23366;52.498;13.446;2023-02-26T17:56:25;3.10;98.80
37518;DHT22;23366;52.498;13.446;2023-02-26T17:58:51;3.00;99.10
37518;DHT22;23366;52.498;13.446;2023-02-26T18:01:17;3.00;99.60
37518;DHT22;23366;52.498;13.446;2023-02-26T18:03:43;2.90;99.70
37518;DHT22;23366;52.498;13.446;2023-02-26T18:06:11;2.90;99.70
37518;DHT22;23366;52.498;13.446;2023-02-26T18:08:38;2.80;99.90
37518;DHT22;23366;52.498;13.446;2023-02-26T18:11:05;2.80;99.90
37518;DHT22;23366;52.498;13.446;2023-02-26T18:13:32;2.70;99.90
37518;DHT22;23366;52.498;13.446;2023-02-26T18:15:58;2.70;99.90
37518;DHT22;23366;52.498;13.446;2023-02-26T18:18:26;2.70;99.90
37518;DHT22;23366;52.498;13.446;2023-02-26T18:20:52;2.60;99.90
37518;DHT22;23366;52.498;13.446;2023-02-26T18:23:17;2.60;99.90
37518;DHT22;23366;52.498;13.446;2023-02-26T18:25:45;2.60;99.90
37518;DHT22;23366;52.498;13.446;2023-02-26T18:28:24;2.50;99.90
37518;DHT22;23366;52.498;13.446;2023-02-26T18:30:51;2.50;99.90
37518;DHT22;23366;52.498;13.446;2023-02-26T18:33:19;2.50;99.90
37518;DHT22;23366;52.498;13.446;2023-02-26T18:35:49;2.50;99.90
37518;DHT22;23366;52.498;13.446;2023-02-26T18:38:20;2.50;99.90
37518;DHT22;23366;52.498;13.446;2023-02-26T18:40:47;2.40;99.90
37518;DHT22;23366;52.498;13.446;2023-02-26T18:43:15;2.40;99.90
37518;DHT22;23366;52.498;13.446;2023-02-26T18:45:43;2.40;99.90
37518;DHT22;23366;52.498;13.446;2023-02-26T18:48:15;2.30;99.90
37518;DHT22;23366;52.498;13.446;2023-02-26T18:50:45;2.30;99.90
37518;DHT22;23366;52.498;13.446;2023-02-26T18:53:11;2.20;99.90
37518;DHT22;23366;52.498;13.446;2023-02-26T18:55:38;2.20;99.90
37518;DHT22;23366;52.498;13.446;2023-02-26T18:58:04;2.20;99.90